sensor_id;sensor_type;location;lat;lon;timestamp;pressure;altitude;pressure_sealevel;temperature;humidity
39793;BME280;26080;42.264;24.536;2023-02-20T00:00:55;99467.44;;;11.45;73.26
39793;BME280;26080;42.264;24.536;2023-02-20T00:03:20;99456.69;;;11.33;74.41
39793;BME280;26080;42.264;24.536;2023-02-20T00:05:46;99467.59;;;11.23;75.15
39793;BME280;26080;42.264;24.536;2023-02-20T00:08:11;99467.91;;;11.17;75.75
39793;BME280;26080;42.264;24.536;2023-02-20T00:10:36;99476.34;;;11.24;75.96
39793;BME280;26080;42.264;24.536;2023-02-20T00:13:02;99465.63;;;11.28;75.11
39793;BME280;26080;42.264;24.536;2023-02-20T00:15:27;99470.44;;;11.38;74.54
39793;BME280;26080;42.264;24.536;2023-02-20T00:17:53;99468.81;;;11.35;73.96
39793;BME280;26080;42.264;24.536;2023-02-20T00:20:23;99445.25;;;11.16;73.87
39793;BME280;26080;42.264;24.536;2023-02-20T00:22:50;99494.81;;;11.40;74.48
39793;BME280;26080;42.264;24.536;2023-02-20T00:25:17;99492.19;;;11.40;74.84
39793;BME280;26080;42.264;24.536;2023-02-20T00:27:44;99495.69;;;11.40;75.06
39793;BME280;26080;42.264;24.536;2023-02-20T00:30:14;99500.75;;;11.43;74.98
39793;BME280;26080;42.264;24.536;2023-02-20T00:32:39;99492.81;;;11.45;74.47
39793;BME280;26080;42.264;24.536;2023-02-20T00:35:05;99494.94;;;11.37;74.96
39793;BME280;26080;42.264;24.536;2023-02-20T00:37:31;99488.53;;;11.25;75.26
39793;BME280;26080;42.264;24.536;2023-02-20T00:39:56;99492.97;;;11.23;75.20
39793;BME280;26080;42.264;24.536;2023-02-20T00:42:22;99490.16;;;11.27;73.87
39793;BME280;26080;42.264;24.536;2023-02-20T00:44:47;99491.53;;;11.53;72.21
39793;BME280;26080;42.264;24.536;2023-02-20T00:47:12;99499.88;;;11.62;71.67
39793;BME280;26080;42.264;24.536;2023-02-20T00:49:38;99493.25;;;11.54;71.99
39793;BME280;26080;42.264;24.536;2023-02-20T00:52:03;99504.78;;;11.50;72.51
39793;BME280;26080;42.264;24.536;2023-02-20T00:54:29;99501.63;;;11.44;73.07
39793;BME280;26080;42.264;24.536;2023-02-20T00:56:54;99501.69;;;11.23;74.12
39793;BME280;26080;42.264;24.536;2023-02-20T00:59:19;99484.44;;;11.01;74.68
39793;BME280;26080;42.264;24.536;2023-02-20T01:01:45;99495.84;;;11.00;75.21
39793;BME280;26080;42.264;24.536;2023-02-20T01:04:11;99498.31;;;10.84;76.18
39793;BME280;26080;42.264;24.536;2023-02-20T01:06:36;99503.16;;;10.73;76.68
39793;BME280;26080;42.264;24.536;2023-02-20T01:09:02;99503.56;;;10.63;77.21
39793;BME280;26080;42.264;24.536;2023-02-20T01:11:27;99501.56;;;10.50;77.72
39793;BME280;26080;42.264;24.536;2023-02-20T01:13:53;99484.22;;;10.27;78.30
39793;BME280;26080;42.264;24.536;2023-02-20T01:16:18;99514.78;;;10.26;79.43
39793;BME280;26080;42.264;24.536;2023-02-20T01:18:43;99516.94;;;10.17;79.85
39793;BME280;26080;42.264;24.536;2023-02-20T01:21:09;99488.44;;;9.89;80.66
39793;BME280;26080;42.264;24.536;2023-02-20T01:23:34;99505.09;;;9.86;81.14
39793;BME280;26080;42.264;24.536;2023-02-20T01:26:00;99515.94;;;9.77;82.17
39793;BME280;26080;42.264;24.536;2023-02-20T01:28:25;99524.22;;;9.66;82.53
39793;BME280;26080;42.264;24.536;2023-02-20T01:30:50;99526.34;;;9.57;83.44
39793;BME280;26080;42.264;24.536;2023-02-20T01:33:16;99525.06;;;9.45;83.97
39793;BME280;26080;42.264;24.536;2023-02-20T01:35:41;99535.28;;;9.51;83.69
39793;BME280;26080;42.264;24.536;2023-02-20T01:38:07;99509.50;;;9.42;83.74
39793;BME280;26080;42.264;24.536;2023-02-20T01:40:33;99540.41;;;9.54;84.83
39793;BME280;26080;42.264;24.536;2023-02-20T01:43:00;99548.03;;;9.59;84.21
39793;BME280;26080;42.264;24.536;2023-02-20T01:45:37;99541.84;;;9.39;85.30
39793;BME280;26080;42.264;24.536;2023-02-20T01:48:03;99546.88;;;9.44;85.51
39793;BME280;26080;42.264;24.536;2023-02-20T01:50:39;99540.31;;;9.34;86.19
39793;BME280;26080;42.264;24.536;2023-02-20T01:53:12;99526.63;;;9.27;85.26
39793;BME280;26080;42.264;24.536;2023-02-20T01:55:43;99539.31;;;9.14;87.04
39793;BME280;26080;42.264;24.536;2023-02-20T01:58:38;99525.44;;;8.89;88.43
39793;BME280;26080;42.264;24.536;2023-02-20T02:01:05;99520.97;;;8.93;89.61
39793;BME280;26080;42.264;24.536;2023-02-20T02:03:34;99525.13;;;8.98;90.40
39793;BME280;26080;42.264;24.536;2023-02-20T02:06:04;99529.31;;;9.02;90.30
39793;BME280;26080;42.264;24.536;2023-02-20T02:08:33;99510.28;;;8.99;90.27
39793;BME280;26080;42.264;24.536;2023-02-20T02:11:11;99535.56;;;8.98;90.89
39793;BME280;26080;42.264;24.536;2023-02-20T02:13:38;99551.31;;;8.97;91.13
39793;BME280;26080;42.264;24.536;2023-02-20T02:40:06;99559.56;;;9.31;92.05
39793;BME280;26080;42.264;24.536;2023-02-20T02:42:59;99569.75;;;9.39;91.79
39793;BME280;26080;42.264;24.536;2023-02-20T02:45:18;99587.13;;;9.40;91.53
39793;BME280;26080;42.264;24.536;2023-02-20T02:47:50;99601.44;;;9.30;92.39
39793;BME280;26080;42.264;24.536;2023-02-20T02:50:22;99588.41;;;9.06;93.21
39793;BME280;26080;42.264;24.536;2023-02-20T02:52:50;99611.06;;;9.06;94.57
39793;BME280;26080;42.264;24.536;2023-02-20T02:55:26;99609.38;;;9.05;95.03
39793;BME280;26080;42.264;24.536;2023-02-20T02:57:52;99609.97;;;9.11;95.34
39793;BME280;26080;42.264;24.536;2023-02-20T03:01:10;99616.72;;;9.17;94.98
39793;BME280;26080;42.264;24.536;2023-02-20T03:03:23;99624.69;;;9.14;95.16
39793;BME280;26080;42.264;24.536;2023-02-20T03:08:47;99622.56;;;9.00;95.58
39793;BME280;26080;42.264;24.536;2023-02-20T03:11:23;99621.09;;;8.93;95.82
39793;BME280;26080;42.264;24.536;2023-02-20T03:14:04;99582.28;;;8.57;96.56
39793;BME280;26080;42.264;24.536;2023-02-20T03:19:45;99615.66;;;8.74;96.21
39793;BME280;26080;42.264;24.536;2023-02-20T03:22:45;99619.03;;;8.78;96.05
39793;BME280;26080;42.264;24.536;2023-02-20T03:25:27;99616.31;;;8.81;95.76
39793;BME280;26080;42.264;24.536;2023-02-20T03:28:04;99613.56;;;8.84;95.47
39793;BME280;26080;42.264;24.536;2023-02-20T03:33:17;99625.53;;;8.66;98.14
39793;BME280;26080;42.264;24.536;2023-02-20T03:36:06;99631.03;;;8.57;99.03
39793;BME280;26080;42.264;24.536;2023-02-20T03:39:02;99601.16;;;8.41;98.98
39793;BME280;26080;42.264;24.536;2023-02-20T03:41:47;99649.53;;;8.51;100.00
39793;BME280;26080;42.264;24.536;2023-02-20T03:44:32;99644.16;;;8.55;99.93
39793;BME280;26080;42.264;24.536;2023-02-20T03:47:00;99645.34;;;8.72;99.84
39793;BME280;26080;42.264;24.536;2023-02-20T03:49:31;99630.44;;;9.24;98.53
39793;BME280;26080;42.264;24.536;2023-02-20T03:51:59;99631.56;;;9.40;96.64
39793;BME280;26080;42.264;24.536;2023-02-20T03:54:26;99627.34;;;9.59;95.42
39793;BME280;26080;42.264;24.536;2023-02-20T03:57:05;99629.78;;;9.87;93.34
39793;BME280;26080;42.264;24.536;2023-02-20T03:59:41;99638.88;;;9.99;92.28
39793;BME280;26080;42.264;24.536;2023-02-20T04:02:14;99634.81;;;9.92;92.31
39793;BME280;26080;42.264;24.536;2023-02-20T04:04:48;99631.03;;;9.77;92.75
39793;BME280;26080;42.264;24.536;2023-02-20T04:07:22;99637.00;;;9.57;93.65
39793;BME280;26080;42.264;24.536;2023-02-20T04:09:49;99648.00;;;9.43;93.99
39793;BME280;26080;42.264;24.536;2023-02-20T04:12:23;99656.34;;;9.30;94.68
39793;BME280;26080;42.264;24.536;2023-02-20T04:14:51;99673.28;;;9.19;95.04
39793;BME280;26080;42.264;24.536;2023-02-20T04:17:22;99647.78;;;9.01;94.17
39793;BME280;26080;42.264;24.536;2023-02-20T04:19:48;99681.97;;;9.20;94.52
39793;BME280;26080;42.264;24.536;2023-02-20T04:22:20;99690.28;;;9.06;95.68
39793;BME280;26080;42.264;24.536;2023-02-20T04:24:59;99691.69;;;8.90;96.84
39793;BME280;26080;42.264;24.536;2023-02-20T04:27:26;99687.97;;;8.72;97.78
39793;BME280;26080;42.264;24.536;2023-02-20T04:29:51;99677.88;;;8.61;97.62
39793;BME280;26080;42.264;24.536;2023-02-20T04:32:17;99679.69;;;8.59;97.69
39793;BME280;26080;42.264;24.536;2023-02-20T04:34:43;99685.13;;;8.53;97.91
39793;BME280;26080;42.264;24.536;2023-02-20T04:37:14;99692.78;;;8.58;96.58
39793;BME280;26080;42.264;24.536;2023-02-20T04:39:40;99693.06;;;8.50;96.98
39793;BME280;26080;42.264;24.536;2023-02-20T04:42:06;99678.00;;;8.30;97.96
39793;BME280;26080;42.264;24.536;2023-02-20T04:44:32;99689.50;;;8.25;98.27
39793;BME280;26080;42.264;24.536;2023-02-20T04:47:04;99688.16;;;8.12;98.20
39793;BME280;26080;42.264;24.536;2023-02-20T04:49:30;99677.16;;;8.02;98.50
39793;BME280;26080;42.264;24.536;2023-02-20T04:51:56;99658.41;;;7.89;98.97
39793;BME280;26080;42.264;24.536;2023-02-20T04:54:22;99680.38;;;7.82;99.68
39793;BME280;26080;42.264;24.536;2023-02-20T04:56:47;99644.16;;;7.73;100.00
39793;BME280;26080;42.264;24.536;2023-02-20T04:59:13;99675.13;;;8.12;99.28
39793;BME280;26080;42.264;24.536;2023-02-20T05:01:39;99677.16;;;8.30;98.25
39793;BME280;26080;42.264;24.536;2023-02-20T05:04:04;99670.03;;;8.37;97.67
39793;BME280;26080;42.264;24.536;2023-02-20T05:06:30;99678.03;;;8.57;96.10
39793;BME280;26080;42.264;24.536;2023-02-20T05:08:55;99676.88;;;8.66;95.63
39793;BME280;26080;42.264;24.536;2023-02-20T05:11:21;99670.75;;;8.67;95.53
39793;BME280;26080;42.264;24.536;2023-02-20T05:13:46;99671.72;;;8.64;95.75
39793;BME280;26080;42.264;24.536;2023-02-20T05:16:12;99673.25;;;8.70;95.44
39793;BME280;26080;42.264;24.536;2023-02-20T05:18:38;99682.69;;;8.74;95.27
39793;BME280;26080;42.264;24.536;2023-02-20T05:21:04;99687.81;;;8.77;95.36
39793;BME280;26080;42.264;24.536;2023-02-20T05:23:48;99689.72;;;8.72;94.98
39793;BME280;26080;42.264;24.536;2023-02-20T05:26:19;99674.22;;;8.67;94.46
39793;BME280;26080;42.264;24.536;2023-02-20T05:28:45;99675.22;;;8.63;94.69
39793;BME280;26080;42.264;24.536;2023-02-20T05:31:11;99670.88;;;8.64;94.61
39793;BME280;26080;42.264;24.536;2023-02-20T05:33:37;99705.09;;;8.81;94.94
39793;BME280;26080;42.264;24.536;2023-02-20T05:36:03;99711.75;;;8.89;93.78
39793;BME280;26080;42.264;24.536;2023-02-20T05:38:29;99720.44;;;8.90;93.49
39793;BME280;26080;42.264;24.536;2023-02-20T05:40:55;99732.63;;;8.91;93.34
39793;BME280;26080;42.264;24.536;2023-02-20T05:43:20;99740.34;;;8.94;92.85
39793;BME280;26080;42.264;24.536;2023-02-20T05:45:46;99742.00;;;8.97;92.17
39793;BME280;26080;42.264;24.536;2023-02-20T05:48:12;99743.75;;;8.96;91.91
39793;BME280;26080;42.264;24.536;2023-02-20T05:50:37;99758.97;;;9.10;90.32
39793;BME280;26080;42.264;24.536;2023-02-20T05:53:03;99743.59;;;9.26;87.44
39793;BME280;26080;42.264;24.536;2023-02-20T05:55:28;99767.69;;;9.59;84.88
39793;BME280;26080;42.264;24.536;2023-02-20T05:57:55;99754.25;;;9.69;83.33
39793;BME280;26080;42.264;24.536;2023-02-20T06:00:21;99747.63;;;9.59;83.10
39793;BME280;26080;42.264;24.536;2023-02-20T06:02:47;99771.44;;;9.76;82.60
39793;BME280;26080;42.264;24.536;2023-02-20T06:05:13;99759.03;;;9.82;81.47
39793;BME280;26080;42.264;24.536;2023-02-20T06:07:38;99762.22;;;9.90;81.42
39793;BME280;26080;42.264;24.536;2023-02-20T06:10:04;99769.22;;;9.89;81.69
39793;BME280;26080;42.264;24.536;2023-02-20T06:12:30;99748.63;;;9.80;80.81
39793;BME280;26080;42.264;24.536;2023-02-20T06:14:55;99775.00;;;9.97;80.44
39793;BME280;26080;42.264;24.536;2023-02-20T06:17:21;99775.66;;;10.04;80.24
39793;BME280;26080;42.264;24.536;2023-02-20T06:19:46;99775.78;;;9.99;80.90
39793;BME280;26080;42.264;24.536;2023-02-20T06:22:15;99725.06;;;9.80;79.80
39793;BME280;26080;42.264;24.536;2023-02-20T06:24:44;99776.88;;;10.17;79.04
39793;BME280;26080;42.264;24.536;2023-02-20T06:27:10;99774.16;;;10.20;79.55
39793;BME280;26080;42.264;24.536;2023-02-20T06:29:35;99765.97;;;10.29;77.59
39793;BME280;26080;42.264;24.536;2023-02-20T06:32:01;99775.22;;;10.38;78.05
39793;BME280;26080;42.264;24.536;2023-02-20T06:34:26;99775.00;;;10.44;78.10
39793;BME280;26080;42.264;24.536;2023-02-20T06:36:55;99755.56;;;10.50;76.83
39793;BME280;26080;42.264;24.536;2023-02-20T06:39:21;99760.50;;;10.57;76.41
39793;BME280;26080;42.264;24.536;2023-02-20T06:41:46;99762.94;;;10.62;76.76
39793;BME280;26080;42.264;24.536;2023-02-20T06:44:12;99759.28;;;10.66;76.12
39793;BME280;26080;42.264;24.536;2023-02-20T06:46:37;99759.81;;;10.74;75.38
39793;BME280;26080;42.264;24.536;2023-02-20T06:49:03;99766.34;;;10.86;74.95
39793;BME280;26080;42.264;24.536;2023-02-20T06:51:31;99738.72;;;10.77;74.38
39793;BME280;26080;42.264;24.536;2023-02-20T06:53:58;99763.16;;;11.00;73.06
39793;BME280;26080;42.264;24.536;2023-02-20T06:56:27;99768.06;;;11.07;71.88
39793;BME280;26080;42.264;24.536;2023-02-20T06:58:53;99767.59;;;11.18;69.97
39793;BME280;26080;42.264;24.536;2023-02-20T07:01:20;99782.19;;;11.25;71.04
39793;BME280;26080;42.264;24.536;2023-02-20T07:03:47;99745.72;;;11.19;69.60
39793;BME280;26080;42.264;24.536;2023-02-20T07:06:15;99773.91;;;11.34;68.93
39793;BME280;26080;42.264;24.536;2023-02-20T07:08:41;99767.66;;;11.37;68.67
39793;BME280;26080;42.264;24.536;2023-02-20T07:11:06;99765.72;;;11.42;68.65
39793;BME280;26080;42.264;24.536;2023-02-20T07:13:32;99768.13;;;11.46;67.51
39793;BME280;26080;42.264;24.536;2023-02-20T07:15:57;99763.59;;;11.50;65.81
39793;BME280;26080;42.264;24.536;2023-02-20T07:18:23;99748.28;;;11.41;66.27
39793;BME280;26080;42.264;24.536;2023-02-20T07:20:54;99736.66;;;11.46;64.21
39793;BME280;26080;42.264;24.536;2023-02-20T07:23:20;99770.59;;;11.70;64.45
39793;BME280;26080;42.264;24.536;2023-02-20T07:25:46;99737.81;;;11.60;62.57
39793;BME280;26080;42.264;24.536;2023-02-20T07:28:13;99740.38;;;11.61;62.51
39793;BME280;26080;42.264;24.536;2023-02-20T07:30:38;99745.91;;;11.74;62.00
39793;BME280;26080;42.264;24.536;2023-02-20T07:33:04;99760.66;;;11.76;60.08
39793;BME280;26080;42.264;24.536;2023-02-20T07:35:29;99754.56;;;11.76;59.94
39793;BME280;26080;42.264;24.536;2023-02-20T07:37:55;99764.69;;;11.85;59.87
39793;BME280;26080;42.264;24.536;2023-02-20T07:40:20;99758.75;;;11.81;59.29
39793;BME280;26080;42.264;24.536;2023-02-20T07:42:46;99769.25;;;12.00;59.21
39793;BME280;26080;42.264;24.536;2023-02-20T07:45:12;99773.13;;;11.92;58.90
39793;BME280;26080;42.264;24.536;2023-02-20T07:47:37;99775.78;;;12.10;59.27
39793;BME280;26080;42.264;24.536;2023-02-20T07:50:03;99764.63;;;12.05;57.84
39793;BME280;26080;42.264;24.536;2023-02-20T07:52:28;99771.94;;;12.18;58.48
39793;BME280;26080;42.264;24.536;2023-02-20T07:54:54;99788.84;;;12.31;55.80
39793;BME280;26080;42.264;24.536;2023-02-20T07:57:19;99786.88;;;12.36;55.94
39793;BME280;26080;42.264;24.536;2023-02-20T07:59:45;99776.97;;;12.41;53.95
39793;BME280;26080;42.264;24.536;2023-02-20T08:02:10;99774.84;;;12.49;54.68
39793;BME280;26080;42.264;24.536;2023-02-20T08:04:36;99763.28;;;12.53;53.86
39793;BME280;26080;42.264;24.536;2023-02-20T08:07:01;99767.94;;;12.65;52.67
39793;BME280;26080;42.264;24.536;2023-02-20T08:09:27;99765.38;;;12.64;50.93
39793;BME280;26080;42.264;24.536;2023-02-20T08:11:52;99772.59;;;12.78;53.23
39793;BME280;26080;42.264;24.536;2023-02-20T08:14:18;99761.94;;;12.81;51.78
39793;BME280;26080;42.264;24.536;2023-02-20T08:16:43;99768.47;;;12.72;51.72
39793;BME280;26080;42.264;24.536;2023-02-20T08:19:08;99754.31;;;12.57;50.16
39793;BME280;26080;42.264;24.536;2023-02-20T08:21:34;99777.38;;;12.87;52.05
39793;BME280;26080;42.264;24.536;2023-02-20T08:24:00;99780.94;;;12.86;49.90
39793;BME280;26080;42.264;24.536;2023-02-20T08:26:25;99759.47;;;12.95;48.64
39793;BME280;26080;42.264;24.536;2023-02-20T08:28:51;99758.63;;;12.94;47.44
39793;BME280;26080;42.264;24.536;2023-02-20T08:31:17;99750.28;;;13.03;47.53
39793;BME280;26080;42.264;24.536;2023-02-20T08:33:42;99731.03;;;13.03;47.46
39793;BME280;26080;42.264;24.536;2023-02-20T08:36:08;99756.59;;;13.18;47.23
39793;BME280;26080;42.264;24.536;2023-02-20T08:38:35;99755.78;;;13.16;46.48
39793;BME280;26080;42.264;24.536;2023-02-20T08:41:06;99709.44;;;13.14;45.71
39793;BME280;26080;42.264;24.536;2023-02-20T08:43:33;99749.00;;;13.29;43.90
39793;BME280;26080;42.264;24.536;2023-02-20T08:45:59;99727.63;;;13.36;42.44
39793;BME280;26080;42.264;24.536;2023-02-20T08:48:24;99740.22;;;13.46;40.64
39793;BME280;26080;42.264;24.536;2023-02-20T08:50:50;99751.44;;;13.50;41.52
39793;BME280;26080;42.264;24.536;2023-02-20T08:53:16;99744.94;;;13.57;42.22
39793;BME280;26080;42.264;24.536;2023-02-20T08:55:41;99749.66;;;13.50;42.03
39793;BME280;26080;42.264;24.536;2023-02-20T08:58:07;99764.81;;;13.62;41.45
39793;BME280;26080;42.264;24.536;2023-02-20T09:00:32;99732.94;;;13.51;41.15
39793;BME280;26080;42.264;24.536;2023-02-20T09:02:58;99749.09;;;13.61;39.86
39793;BME280;26080;42.264;24.536;2023-02-20T09:05:24;99723.59;;;13.46;40.11
39793;BME280;26080;42.264;24.536;2023-02-20T09:07:49;99768.63;;;13.57;38.31
39793;BME280;26080;42.264;24.536;2023-02-20T09:10:19;99763.19;;;13.60;37.38
39793;BME280;26080;42.264;24.536;2023-02-20T09:12:45;99755.50;;;13.73;37.17
39793;BME280;26080;42.264;24.536;2023-02-20T09:15:10;99739.75;;;13.88;36.45
39793;BME280;26080;42.264;24.536;2023-02-20T09:17:37;99722.78;;;13.61;36.91
39793;BME280;26080;42.264;24.536;2023-02-20T09:20:02;99750.84;;;13.93;36.56
39793;BME280;26080;42.264;24.536;2023-02-20T09:22:29;99729.19;;;13.73;36.08
39793;BME280;26080;42.264;24.536;2023-02-20T09:24:54;99759.59;;;13.78;37.43
39793;BME280;26080;42.264;24.536;2023-02-20T09:27:20;99723.56;;;13.79;36.64
39793;BME280;26080;42.264;24.536;2023-02-20T09:29:46;99741.72;;;14.01;37.01
39793;BME280;26080;42.264;24.536;2023-02-20T09:32:12;99746.97;;;14.01;36.16
39793;BME280;26080;42.264;24.536;2023-02-20T09:34:38;99719.09;;;13.97;32.60
39793;BME280;26080;42.264;24.536;2023-02-20T09:37:04;99735.25;;;14.06;31.30
39793;BME280;26080;42.264;24.536;2023-02-20T09:39:30;99744.94;;;14.21;33.46
39793;BME280;26080;42.264;24.536;2023-02-20T09:42:04;99747.66;;;14.20;31.61
39793;BME280;26080;42.264;24.536;2023-02-20T09:45:22;99747.84;;;14.17;32.33
39793;BME280;26080;42.264;24.536;2023-02-20T09:47:37;99742.88;;;14.11;29.49
39793;BME280;26080;42.264;24.536;2023-02-20T09:50:12;99750.38;;;14.18;30.00
39793;BME280;26080;42.264;24.536;2023-02-20T09:52:42;99765.34;;;14.18;31.40
39793;BME280;26080;42.264;24.536;2023-02-20T09:55:16;99761.28;;;14.28;30.12
39793;BME280;26080;42.264;24.536;2023-02-20T09:57:47;99755.31;;;14.40;28.89
39793;BME280;26080;42.264;24.536;2023-02-20T10:00:34;99751.75;;;14.41;27.15
39793;BME280;26080;42.264;24.536;2023-02-20T10:03:23;99738.56;;;14.10;28.21
39793;BME280;26080;42.264;24.536;2023-02-20T10:05:52;99727.78;;;14.30;27.18
39793;BME280;26080;42.264;24.536;2023-02-20T10:08:20;99724.03;;;14.34;27.39
39793;BME280;26080;42.264;24.536;2023-02-20T10:10:49;99716.41;;;14.30;27.21
39793;BME280;26080;42.264;24.536;2023-02-20T10:16:16;99757.88;;;14.73;28.77
39793;BME280;26080;42.264;24.536;2023-02-20T10:29:43;99725.31;;;14.59;27.70
39793;BME280;26080;42.264;24.536;2023-02-20T10:32:15;99741.97;;;14.75;27.70
39793;BME280;26080;42.264;24.536;2023-02-20T10:37:22;99734.50;;;14.67;27.29
39793;BME280;26080;42.264;24.536;2023-02-20T10:39:57;99731.13;;;14.95;27.52
39793;BME280;26080;42.264;24.536;2023-02-20T10:43:19;99743.41;;;14.80;28.08
39793;BME280;26080;42.264;24.536;2023-02-20T10:45:44;99733.09;;;14.76;26.89
39793;BME280;26080;42.264;24.536;2023-02-20T10:48:13;99718.41;;;14.72;27.52
39793;BME280;26080;42.264;24.536;2023-02-20T10:53:28;99735.84;;;15.04;27.61
39793;BME280;26080;42.264;24.536;2023-02-20T10:56:39;99734.50;;;14.97;26.90
39793;BME280;26080;42.264;24.536;2023-02-20T11:02:14;99732.75;;;15.12;26.84
39793;BME280;26080;42.264;24.536;2023-02-20T11:04:41;99726.91;;;15.21;25.70
39793;BME280;26080;42.264;24.536;2023-02-20T11:07:16;99716.88;;;15.28;26.74
39793;BME280;26080;42.264;24.536;2023-02-20T11:09:44;99701.09;;;15.12;25.84
39793;BME280;26080;42.264;24.536;2023-02-20T11:14:56;99720.25;;;15.30;25.96
39793;BME280;26080;42.264;24.536;2023-02-20T11:17:26;99702.91;;;15.26;25.83
39793;BME280;26080;42.264;24.536;2023-02-20T11:19:53;99683.69;;;15.24;25.67
39793;BME280;26080;42.264;24.536;2023-02-20T11:22:42;99683.22;;;15.46;25.68
39793;BME280;26080;42.264;24.536;2023-02-20T11:25:19;99688.31;;;15.49;25.93
39793;BME280;26080;42.264;24.536;2023-02-20T11:27:47;99688.78;;;15.27;26.12
39793;BME280;26080;42.264;24.536;2023-02-20T11:33:00;99704.91;;;15.36;27.16
39793;BME280;26080;42.264;24.536;2023-02-20T11:35:27;99696.50;;;15.44;26.04
39793;BME280;26080;42.264;24.536;2023-02-20T11:40:42;99709.72;;;15.44;26.84
39793;BME280;26080;42.264;24.536;2023-02-20T11:45:38;99678.78;;;15.32;26.97
39793;BME280;26080;42.264;24.536;2023-02-20T11:48:18;99716.38;;;15.65;26.84
39793;BME280;26080;42.264;24.536;2023-02-20T11:50:47;99692.28;;;15.56;26.19
39793;BME280;26080;42.264;24.536;2023-02-20T11:53:20;99710.66;;;15.57;26.44
39793;BME280;26080;42.264;24.536;2023-02-20T11:55:47;99676.44;;;15.41;26.12
39793;BME280;26080;42.264;24.536;2023-02-20T11:58:25;99706.78;;;15.49;26.69
39793;BME280;26080;42.264;24.536;2023-02-20T12:00:53;99704.44;;;15.58;26.33
39793;BME280;26080;42.264;24.536;2023-02-20T12:03:26;99697.75;;;15.53;26.35
39793;BME280;26080;42.264;24.536;2023-02-20T12:05:53;99710.66;;;15.57;26.66
39793;BME280;26080;42.264;24.536;2023-02-20T12:08:49;99705.72;;;15.67;26.15
39793;BME280;26080;42.264;24.536;2023-02-20T12:11:25;99710.88;;;15.68;26.01
39793;BME280;26080;42.264;24.536;2023-02-20T12:13:53;99710.00;;;15.54;26.63
39793;BME280;26080;42.264;24.536;2023-02-20T12:29:58;99701.25;;;15.82;26.41
39793;BME280;26080;42.264;24.536;2023-02-20T12:32:43;99698.13;;;15.75;26.01
39793;BME280;26080;42.264;24.536;2023-02-20T12:41:30;99678.03;;;15.87;27.10
39793;BME280;26080;42.264;24.536;2023-02-20T12:46:44;99682.78;;;15.82;26.66
39793;BME280;26080;42.264;24.536;2023-02-20T12:57:16;99685.50;;;15.94;27.17
39793;BME280;26080;42.264;24.536;2023-02-20T13:04:54;99662.41;;;15.84;26.00
39793;BME280;26080;42.264;24.536;2023-02-20T13:07:34;99667.97;;;15.79;26.13
39793;BME280;26080;42.264;24.536;2023-02-20T13:10:14;99673.38;;;15.78;26.37
39793;BME280;26080;42.264;24.536;2023-02-20T13:12:40;99675.69;;;15.82;25.93
39793;BME280;26080;42.264;24.536;2023-02-20T13:21:11;99686.81;;;15.87;24.49
39793;BME280;26080;42.264;24.536;2023-02-20T13:23:38;99695.13;;;15.81;24.81
39793;BME280;26080;42.264;24.536;2023-02-20T13:29:18;99691.00;;;15.77;24.77
39793;BME280;26080;42.264;24.536;2023-02-20T13:31:50;99693.72;;;15.76;24.70
39793;BME280;26080;42.264;24.536;2023-02-20T13:36:48;99695.97;;;15.82;25.05
39793;BME280;26080;42.264;24.536;2023-02-20T13:47:28;99704.84;;;15.81;23.82
39793;BME280;26080;42.264;24.536;2023-02-20T13:49:57;99709.47;;;15.77;24.74
39793;BME280;26080;42.264;24.536;2023-02-20T13:52:42;99722.59;;;15.79;24.45
39793;BME280;26080;42.264;24.536;2023-02-20T13:57:56;99717.88;;;15.69;24.76
39793;BME280;26080;42.264;24.536;2023-02-20T14:02:54;99724.38;;;15.64;24.52
39793;BME280;26080;42.264;24.536;2023-02-20T14:05:28;99703.13;;;15.51;25.54
39793;BME280;26080;42.264;24.536;2023-02-20T14:07:56;99729.56;;;15.65;25.93
39793;BME280;26080;42.264;24.536;2023-02-20T14:10:36;99737.59;;;15.64;25.35
39793;BME280;26080;42.264;24.536;2023-02-20T14:15:54;99735.03;;;15.62;25.80
39793;BME280;26080;42.264;24.536;2023-02-20T14:18:25;99739.44;;;15.62;25.63
39793;BME280;26080;42.264;24.536;2023-02-20T14:23:39;99726.41;;;15.59;26.16
39793;BME280;26080;42.264;24.536;2023-02-20T14:26:25;99733.28;;;15.47;25.50
39793;BME280;26080;42.264;24.536;2023-02-20T14:28:56;99734.31;;;15.45;25.00
39793;BME280;26080;42.264;24.536;2023-02-20T14:31:34;99732.16;;;15.51;22.04
39793;BME280;26080;42.264;24.536;2023-02-20T14:34:07;99734.91;;;15.50;24.29
39793;BME280;26080;42.264;24.536;2023-02-20T14:37:01;99734.31;;;15.45;25.06
39793;BME280;26080;42.264;24.536;2023-02-20T14:41:58;99744.75;;;15.32;26.74
39793;BME280;26080;42.264;24.536;2023-02-20T14:44:25;99741.75;;;15.24;25.96
39793;BME280;26080;42.264;24.536;2023-02-20T14:46:58;99728.34;;;15.13;25.43
39793;BME280;26080;42.264;24.536;2023-02-20T14:49:29;99750.47;;;15.10;26.66
39793;BME280;26080;42.264;24.536;2023-02-20T14:52:13;99757.78;;;15.05;26.08
39793;BME280;26080;42.264;24.536;2023-02-20T14:54:41;99751.00;;;15.01;26.37
39793;BME280;26080;42.264;24.536;2023-02-20T14:57:11;99713.13;;;14.72;27.12
39793;BME280;26080;42.264;24.536;2023-02-20T14:59:37;99752.56;;;14.89;23.10
39793;BME280;26080;42.264;24.536;2023-02-20T15:02:20;99757.59;;;14.78;23.07
39793;BME280;26080;42.264;24.536;2023-02-20T15:05:01;99766.53;;;14.75;22.98
39793;BME280;26080;42.264;24.536;2023-02-20T15:07:27;99758.72;;;14.74;23.24
39793;BME280;26080;42.264;24.536;2023-02-20T15:09:59;99763.50;;;14.67;23.84
39793;BME280;26080;42.264;24.536;2023-02-20T15:12:33;99777.59;;;14.50;24.87
39793;BME280;26080;42.264;24.536;2023-02-20T15:15:09;99776.09;;;14.46;25.09
39793;BME280;26080;42.264;24.536;2023-02-20T15:17:40;99784.47;;;14.37;26.40
39793;BME280;26080;42.264;24.536;2023-02-20T15:20:17;99792.72;;;14.31;27.46